Time;durP1;ratioP1;P1;durP2;ratioP2;P2;SDS_P1;SDS_P2;PMS_P1;PMS_P2;Temp;Humidity;BMP_temperature;BMP_pressure;BME280_temperature;BME280_humidity;BME280_pressure;Samples;Min_cycle;Max_cycle;Signal;HPM_P1;HPM_P2
2021/10/08 00:01:40;;;;;;;0.65;0.20;;;10.60;99.90;;;;;;5034192;28;20029;-79
2021/10/08 00:04:06;;;;;;;0.63;0.35;;;10.60;99.90;;;;;;5022000;28;20084;-80
2021/10/08 00:06:31;;;;;;;0.70;0.40;;;10.60;99.90;;;;;;5034841;28;20030;-80
2021/10/08 00:08:57;;;;;;;0.47;0.20;;;10.60;99.90;;;;;;5021343;28;20084;-80
2021/10/08 00:11:23;;;;;;;0.68;0.25;;;10.60;99.90;;;;;;5019877;28;20034;-79
2021/10/08 00:13:49;;;;;;;0.47;0.20;;;10.50;99.90;;;;;;5020206;28;20032;-80
2021/10/08 00:16:14;;;;;;;0.43;0.38;;;10.50;99.90;;;;;;5021799;28;20090;-79
2021/10/08 00:18:40;;;;;;;0.30;0.17;;;10.40;99.90;;;;;;5030975;28;20587;-80
2021/10/08 00:21:07;;;;;;;0.38;0.20;;;10.40;99.90;;;;;;5084825;22;20024;-83
2021/10/08 00:23:32;;;;;;;0.63;0.20;;;10.30;99.90;;;;;;5026610;28;20124;-83
2021/10/08 00:25:58;;;;;;;0.13;0.13;;;10.30;99.90;;;;;;5031193;28;20030;-84
2021/10/08 00:28:24;;;;;;;0.40;0.30;;;10.20;99.90;;;;;;5031303;28;20102;-84
2021/10/08 00:30:50;;;;;;;0.80;0.40;;;10.20;99.90;;;;;;5031064;28;20044;-84
2021/10/08 00:33:16;;;;;;;0.85;0.47;;;10.20;99.90;;;;;;5029040;28;20034;-83
2021/10/08 00:35:42;;;;;;;0.35;0.13;;;10.20;99.90;;;;;;5032333;28;20076;-83
2021/10/08 00:38:08;;;;;;;0.20;0.10;;;10.20;99.90;;;;;;5033453;28;20026;-82
2021/10/08 00:40:41;;;;;;;0.30;0.20;;;10.10;99.90;;;;;;5016146;28;20026;-84
2021/10/08 00:43:08;;;;;;;0.70;0.52;;;10.10;99.90;;;;;;5003965;28;20026;-84
2021/10/08 00:45:34;;;;;;;0.45;0.30;;;10.10;99.90;;;;;;5016015;28;20026;-83
2021/10/08 00:48:05;;;;;;;0.40;0.20;;;10.10;99.90;;;;;;5007647;28;20030;-84
2021/10/08 00:50:35;;;;;;;0.90;0.52;;;10.00;99.90;;;;;;5020736;28;20083;-84
2021/10/08 00:53:00;;;;;;;0.80;0.22;;;10.00;99.90;;;;;;5023547;28;20010;-82
2021/10/08 00:55:26;;;;;;;1.38;0.32;;;9.90;99.90;;;;;;5026043;28;20110;-83
2021/10/08 00:57:52;;;;;;;0.63;0.40;;;9.90;99.90;;;;;;5021989;28;20036;-83
2021/10/08 01:00:18;;;;;;;0.70;0.30;;;9.80;99.90;;;;;;5021926;28;20355;-84
2021/10/08 01:02:44;;;;;;;1.95;0.52;;;9.80;99.90;;;;;;5022177;28;20033;-84
2021/10/08 01:05:11;;;;;;;1.13;0.38;;;9.80;99.90;;;;;;5021606;28;20033;-84
2021/10/08 01:07:37;;;;;;;0.65;0.45;;;9.80;99.90;;;;;;5026470;28;20029;-83
2021/10/08 01:10:05;;;;;;;0.77;0.30;;;9.80;99.90;;;;;;5032378;28;20026;-82
2021/10/08 01:12:31;;;;;;;0.85;0.30;;;9.80;99.90;;;;;;5029242;28;20029;-83
2021/10/08 01:14:57;;;;;;;0.68;0.32;;;9.80;99.90;;;;;;5047462;28;20034;-83
2021/10/08 01:17:22;;;;;;;0.43;0.22;;;9.80;99.90;;;;;;5025482;28;20041;-85
2021/10/08 01:19:48;;;;;;;0.52;0.17;;;9.80;99.90;;;;;;5024116;28;20649;-85
2021/10/08 01:22:14;;;;;;;0.73;0.30;;;9.70;99.90;;;;;;5025952;28;20030;-83
2021/10/08 01:24:41;;;;;;;0.20;0.20;;;9.70;99.90;;;;;;5026727;28;20061;-84
2021/10/08 01:27:08;;;;;;;0.65;0.30;;;9.70;99.90;;;;;;5021875;28;20026;-84
2021/10/08 01:29:47;;;;;;;0.60;0.40;;;9.70;99.90;;;;;;5029506;28;20026;-84
2021/10/08 01:32:12;;;;;;;0.95;0.40;;;9.60;99.90;;;;;;5029691;28;20085;-84
2021/10/08 01:34:38;;;;;;;0.43;0.30;;;9.60;99.90;;;;;;5026669;28;20478;-82
2021/10/08 01:37:04;;;;;;;0.55;0.40;;;9.70;99.90;;;;;;5029947;28;20041;-83
2021/10/08 01:39:30;;;;;;;2.85;0.40;;;9.60;99.90;;;;;;5029481;28;20093;-84
2021/10/08 01:41:55;;;;;;;3.55;0.35;;;9.50;99.90;;;;;;5029299;28;20122;-84
2021/10/08 01:44:21;;;;;;;0.90;0.38;;;9.50;99.90;;;;;;5026424;28;20025;-82
2021/10/08 01:46:49;;;;;;;0.13;0.10;;;9.50;99.90;;;;;;5030372;28;20089;-83
2021/10/08 01:49:15;;;;;;;0.40;0.40;;;9.50;99.90;;;;;;5021658;28;20048;-84
2021/10/08 01:51:41;;;;;;;0.57;0.47;;;9.50;99.90;;;;;;5018586;28;20383;-82
2021/10/08 01:54:06;;;;;;;0.70;0.40;;;9.50;99.90;;;;;;5038148;28;20655;-85
2021/10/08 01:56:32;;;;;;;0.80;0.30;;;9.50;99.90;;;;;;5026509;28;20017;-85
2021/10/08 01:58:58;;;;;;;0.55;0.20;;;9.40;99.90;;;;;;5034195;28;20041;-85
2021/10/08 02:01:24;;;;;;;1.10;0.50;;;9.40;99.90;;;;;;5020839;28;20025;-84
2021/10/08 02:03:51;;;;;;;0.40;0.20;;;9.40;99.90;;;;;;5031520;28;20152;-84
2021/10/08 02:06:17;;;;;;;0.32;0.25;;;9.40;99.90;;;;;;5000789;28;20028;-84
2021/10/08 02:08:42;;;;;;;0.85;0.30;;;9.40;99.90;;;;;;5000850;28;20029;-84
2021/10/08 02:11:08;;;;;;;0.82;0.38;;;9.40;99.90;;;;;;5002779;28;20459;-83
2021/10/08 02:13:34;;;;;;;0.77;0.77;;;9.40;99.90;;;;;;5019209;28;20094;-84
2021/10/08 02:16:00;;;;;;;0.73;0.40;;;9.30;99.90;;;;;;5022922;28;20049;-85
2021/10/08 02:18:28;;;;;;;1.30;0.60;;;9.30;99.90;;;;;;5022256;28;20112;-84
2021/10/08 02:20:54;;;;;;;0.85;0.55;;;9.30;99.90;;;;;;5020592;28;20033;-83
2021/10/08 02:23:20;;;;;;;0.60;0.50;;;9.30;99.90;;;;;;5039406;28;20033;-85
2021/10/08 02:25:46;;;;;;;0.70;0.20;;;9.30;99.90;;;;;;5027491;28;20037;-82
2021/10/08 02:28:11;;;;;;;0.70;0.40;;;9.20;99.90;;;;;;5044100;28;20060;-83
2021/10/08 02:30:37;;;;;;;0.98;0.47;;;9.30;99.90;;;;;;5042075;28;20026;-84
2021/10/08 02:33:03;;;;;;;0.43;0.30;;;9.30;99.90;;;;;;5045587;28;20015;-83
2021/10/08 02:35:28;;;;;;;1.00;0.50;;;9.30;99.90;;;;;;5026771;28;20031;-84
2021/10/08 02:37:54;;;;;;;0.95;0.50;;;9.20;99.90;;;;;;5005757;28;20030;-84
2021/10/08 02:40:19;;;;;;;0.75;0.50;;;9.20;99.90;;;;;;5021860;28;20044;-85
2021/10/08 02:42:45;;;;;;;0.95;0.50;;;9.10;99.90;;;;;;5024976;28;20040;-84
2021/10/08 02:45:11;;;;;;;0.93;0.65;;;9.10;99.90;;;;;;5025595;28;20029;-83
2021/10/08 02:47:37;;;;;;;1.52;0.77;;;9.10;99.90;;;;;;5035572;28;20014;-83
2021/10/08 02:50:03;;;;;;;0.93;0.55;;;9.10;99.90;;;;;;5030627;28;20490;-83
2021/10/08 02:52:28;;;;;;;1.33;0.30;;;9.10;99.90;;;;;;5015606;28;20053;-84
2021/10/08 02:54:54;;;;;;;1.25;0.60;;;9.10;99.90;;;;;;5031723;28;20072;-83
2021/10/08 02:57:20;;;;;;;0.50;0.32;;;9.10;99.90;;;;;;5020072;28;20041;-85
2021/10/08 02:59:45;;;;;;;0.93;0.80;;;9.00;99.90;;;;;;5023503;28;20080;-85
2021/10/08 03:02:11;;;;;;;0.57;0.47;;;9.00;99.90;;;;;;5024310;28;20061;-84
2021/10/08 03:04:37;;;;;;;0.82;0.32;;;9.00;99.90;;;;;;5025269;28;20037;-83
2021/10/08 03:07:03;;;;;;;1.60;0.30;;;8.90;99.90;;;;;;5025429;28;20048;-84
2021/10/08 03:09:28;;;;;;;1.17;0.60;;;8.90;99.90;;;;;;5024207;28;20490;-83
2021/10/08 03:11:55;;;;;;;0.50;0.30;;;8.90;99.90;;;;;;5024769;28;20026;-85
2021/10/08 03:14:20;;;;;;;0.80;0.60;;;8.90;99.90;;;;;;5025152;28;20032;-85
2021/10/08 03:16:46;;;;;;;1.50;0.47;;;8.90;99.90;;;;;;5030812;28;20153;-84
2021/10/08 03:19:12;;;;;;;1.67;0.70;;;8.90;99.90;;;;;;5033939;28;20018;-85
2021/10/08 03:21:37;;;;;;;1.17;0.50;;;8.80;99.90;;;;;;5034543;28;20033;-83
2021/10/08 03:24:03;;;;;;;1.20;0.47;;;8.80;99.90;;;;;;5045608;28;20096;-84
2021/10/08 03:26:29;;;;;;;0.98;0.40;;;8.60;99.90;;;;;;5050390;28;20052;-83
2021/10/08 03:28:54;;;;;;;0.73;0.50;;;8.80;99.90;;;;;;5034348;28;20086;-83
2021/10/08 03:31:20;;;;;;;1.08;0.50;;;8.80;99.90;;;;;;5040420;28;20030;-83
2021/10/08 03:33:46;;;;;;;0.70;0.50;;;8.80;99.90;;;;;;5004242;28;20094;-85
2021/10/08 03:36:24;;;;;;;1.35;0.70;;;8.80;99.90;;;;;;5016461;28;20529;-84
2021/10/08 03:38:50;;;;;;;0.45;0.35;;;8.70;99.90;;;;;;5018726;28;20037;-83
2021/10/08 03:41:18;;;;;;;1.48;0.65;;;8.70;99.90;;;;;;5019109;28;20033;-84
2021/10/08 03:43:44;;;;;;;0.55;0.25;;;8.70;99.90;;;;;;5019992;28;20030;-84
2021/10/08 03:46:10;;;;;;;1.17;0.50;;;8.70;99.90;;;;;;5023192;28;20041;-85
2021/10/08 03:51:27;;;;;;;0.68;0.50;;;8.80;99.90;;;;;;5023398;28;20053;-84
2021/10/08 03:53:53;;;;;;;1.05;0.50;;;8.80;99.90;;;;;;5020848;28;20022;-84
2021/10/08 03:56:19;;;;;;;1.02;0.40;;;8.80;99.90;;;;;;5017398;28;20034;-85
2021/10/08 03:58:45;;;;;;;0.60;0.30;;;8.70;99.90;;;;;;5029742;28;20061;-85
2021/10/08 04:01:10;;;;;;;1.23;0.73;;;8.80;99.90;;;;;;5029483;28;20033;-85
2021/10/08 04:03:36;;;;;;;1.05;0.45;;;8.80;99.90;;;;;;5040913;28;20410;-83
2021/10/08 04:06:02;;;;;;;0.98;0.40;;;8.70;99.90;;;;;;5023240;28;20034;-84
2021/10/08 04:08:28;;;;;;;1.05;0.63;;;8.70;99.90;;;;;;5023333;28;20022;-85
2021/10/08 04:10:53;;;;;;;0.77;0.45;;;8.70;99.90;;;;;;5021907;28;20053;-84
2021/10/08 04:13:19;;;;;;;2.20;0.50;;;8.80;99.90;;;;;;5022985;28;20101;-83
2021/10/08 04:15:45;;;;;;;0.98;0.60;;;8.70;99.90;;;;;;5038564;28;20034;-83
2021/10/08 04:18:13;;;;;;;0.70;0.45;;;8.70;99.90;;;;;;5021227;28;20485;-84
2021/10/08 04:20:40;;;;;;;0.50;0.35;;;8.70;99.90;;;;;;5020368;28;20494;-84
2021/10/08 04:23:06;;;;;;;1.08;0.57;;;8.70;99.90;;;;;;5020936;28;20030;-84
2021/10/08 04:25:31;;;;;;;2.80;0.75;;;8.80;99.90;;;;;;5021617;28;20030;-84
2021/10/08 04:27:57;;;;;;;1.25;0.52;;;8.80;99.90;;;;;;5020643;28;20498;-84
2021/10/08 04:30:22;;;;;;;1.35;0.90;;;8.70;99.90;;;;;;5021783;28;20449;-84
2021/10/08 04:32:48;;;;;;;3.22;0.50;;;8.70;99.90;;;;;;5028745;28;20026;-84
2021/10/08 04:35:14;;;;;;;1.63;0.80;;;8.70;99.90;;;;;;5036469;28;20482;-84
2021/10/08 04:37:40;;;;;;;1.45;0.88;;;8.70;99.90;;;;;;5031365;28;20033;-85
2021/10/08 04:40:06;;;;;;;1.60;0.80;;;8.60;99.90;;;;;;5036774;28;20034;-84
2021/10/08 04:42:32;;;;;;;1.27;0.50;;;8.60;99.90;;;;;;5032054;28;20108;-84
2021/10/08 04:44:58;;;;;;;1.23;0.80;;;8.70;99.90;;;;;;5032981;28;20113;-84
2021/10/08 04:47:24;;;;;;;1.88;0.40;;;8.60;99.90;;;;;;5026976;28;20022;-84
2021/10/08 04:49:50;;;;;;;1.20;0.85;;;8.80;99.90;;;;;;5042173;28;20025;-83
2021/10/08 04:52:15;;;;;;;1.08;0.65;;;8.50;99.90;;;;;;5029581;28;20018;-83
2021/10/08 04:54:41;;;;;;;1.00;0.40;;;8.50;99.90;;;;;;5045648;28;20021;-84
2021/10/08 04:57:07;;;;;;;1.80;0.73;;;8.50;99.90;;;;;;5020363;28;20092;-84
2021/10/08 04:59:33;;;;;;;1.38;0.73;;;8.60;99.90;;;;;;5024841;28;20037;-85
2021/10/08 05:01:59;;;;;;;1.42;0.40;;;8.60;99.90;;;;;;5028776;28;20022;-84
2021/10/08 05:04:25;;;;;;;1.80;0.98;;;8.60;99.90;;;;;;5028519;28;20105;-84
2021/10/08 05:06:51;;;;;;;1.27;0.80;;;8.50;99.90;;;;;;5030736;28;20050;-85
2021/10/08 05:09:17;;;;;;;1.25;0.60;;;8.50;99.90;;;;;;5045810;28;20026;-83
2021/10/08 05:11:44;;;;;;;1.40;0.70;;;8.50;99.90;;;;;;5034680;28;20026;-85
2021/10/08 05:14:13;;;;;;;1.55;1.02;;;8.50;99.90;;;;;;5029719;28;20081;-84
2021/10/08 05:16:39;;;;;;;1.27;0.73;;;8.50;99.90;;;;;;5022449;28;20076;-84
2021/10/08 05:19:06;;;;;;;1.98;1.20;;;8.50;99.90;;;;;;5023209;28;20083;-84
2021/10/08 05:21:32;;;;;;;2.67;0.55;;;8.50;99.90;;;;;;5022892;28;20500;-84
2021/10/08 05:23:57;;;;;;;1.48;0.80;;;8.50;99.90;;;;;;5015923;28;20069;-85
2021/10/08 05:26:23;;;;;;;1.95;0.90;;;8.50;99.90;;;;;;5019700;28;20379;-85
2021/10/08 05:28:49;;;;;;;2.10;1.02;;;8.50;99.90;;;;;;5015498;28;20096;-84
2021/10/08 05:31:15;;;;;;;2.65;1.15;;;8.50;99.90;;;;;;5020540;28;20022;-84
2021/10/08 05:33:40;;;;;;;0.75;0.52;;;8.60;99.90;;;;;;5033860;28;20030;-84
2021/10/08 05:36:07;;;;;;;1.02;0.60;;;8.60;99.90;;;;;;5029948;28;20034;-85
2021/10/08 05:38:33;;;;;;;0.82;0.47;;;8.60;99.90;;;;;;5012367;28;20030;-84
2021/10/08 05:41:00;;;;;;;1.23;0.60;;;8.60;99.90;;;;;;5012002;28;20096;-84
2021/10/08 05:43:26;;;;;;;1.23;0.88;;;8.50;99.90;;;;;;5013924;28;20018;-83
2021/10/08 05:45:53;;;;;;;1.67;0.98;;;8.50;99.90;;;;;;5012402;28;20121;-83
2021/10/08 05:48:19;;;;;;;1.38;0.80;;;8.60;99.90;;;;;;5014616;28;20022;-83
2021/10/08 05:50:44;;;;;;;1.60;0.73;;;8.60;99.90;;;;;;5011992;28;20026;-83
2021/10/08 05:53:10;;;;;;;1.25;0.60;;;8.60;99.90;;;;;;5011812;28;20418;-82
2021/10/08 05:55:36;;;;;;;2.70;1.38;;;8.60;99.90;;;;;;5014154;28;20037;-82
2021/10/08 05:58:03;;;;;;;1.85;0.93;;;8.60;99.90;;;;;;5016910;28;20056;-83
2021/10/08 06:00:28;;;;;;;2.00;0.88;;;8.70;99.90;;;;;;5031269;28;20108;-83
2021/10/08 06:02:54;;;;;;;2.00;0.70;;;8.70;99.90;;;;;;5026252;28;20101;-83
2021/10/08 06:05:20;;;;;;;1.52;0.80;;;8.70;99.90;;;;;;5011616;28;20176;-83
2021/10/08 06:07:45;;;;;;;2.25;0.98;;;8.70;99.90;;;;;;5012606;28;20120;-82
2021/10/08 06:10:11;;;;;;;1.38;0.63;;;8.80;99.90;;;;;;5010969;28;20033;-83
2021/10/08 06:12:37;;;;;;;1.02;0.55;;;9.00;99.90;;;;;;5013847;28;20096;-83
2021/10/08 06:15:03;;;;;;;1.60;0.98;;;8.90;99.90;;;;;;5007189;28;20522;-83
2021/10/08 06:17:28;;;;;;;0.70;0.45;;;8.90;99.90;;;;;;5022149;28;20022;-83
2021/10/08 06:19:54;;;;;;;2.22;0.90;;;8.90;99.90;;;;;;5018299;28;20428;-82
2021/10/08 06:22:20;;;;;;;2.13;1.33;;;9.00;99.90;;;;;;5034888;22;20042;-79
2021/10/08 06:24:46;;;;;;;1.85;0.77;;;9.00;99.90;;;;;;4982077;28;20035;-79
2021/10/08 06:27:12;;;;;;;2.17;1.38;;;9.00;99.90;;;;;;4988668;28;20046;-79
2021/10/08 06:29:38;;;;;;;1.55;0.70;;;9.00;99.90;;;;;;4999800;28;20062;-79
2021/10/08 06:32:06;;;;;;;1.38;0.70;;;9.10;99.90;;;;;;4986914;28;20026;-79
2021/10/08 06:34:33;;;;;;;1.52;0.57;;;9.10;99.90;;;;;;4983051;28;20038;-79
2021/10/08 06:36:58;;;;;;;1.45;0.70;;;9.10;99.90;;;;;;4984117;28;20077;-78
2021/10/08 06:39:24;;;;;;;1.50;0.85;;;9.20;99.90;;;;;;4995693;28;20038;-79
2021/10/08 06:41:51;;;;;;;1.50;0.82;;;9.20;99.90;;;;;;4983425;28;20062;-78
2021/10/08 06:44:17;;;;;;;1.52;1.10;;;9.30;99.90;;;;;;4982809;28;20027;-79
2021/10/08 06:46:43;;;;;;;2.05;0.73;;;9.30;99.90;;;;;;4983669;28;20085;-79
2021/10/08 06:49:10;;;;;;;1.30;0.60;;;9.40;99.90;;;;;;4984993;28;20073;-79
2021/10/08 06:51:36;;;;;;;2.13;0.95;;;9.50;99.90;;;;;;4980843;28;20027;-79
2021/10/08 06:54:01;;;;;;;1.73;0.70;;;9.50;99.90;;;;;;4984359;28;20041;-79
2021/10/08 06:56:29;;;;;;;2.67;1.05;;;9.60;99.90;;;;;;4992809;28;20034;-79
2021/10/08 06:58:55;;;;;;;1.20;0.60;;;9.60;99.90;;;;;;4995120;28;20026;-80
2021/10/08 07:01:21;;;;;;;2.00;0.73;;;9.70;99.90;;;;;;5003643;28;20022;-81
2021/10/08 07:03:47;;;;;;;1.65;1.02;;;9.80;99.90;;;;;;5001989;28;20019;-80
2021/10/08 07:06:12;;;;;;;0.90;0.60;;;9.80;99.90;;;;;;4988469;28;20062;-81
2021/10/08 07:08:38;;;;;;;3.10;1.27;;;9.90;99.90;;;;;;4989003;28;20428;-80
2021/10/08 07:11:03;;;;;;;1.85;1.20;;;10.00;99.90;;;;;;4987661;28;20451;-80
2021/10/08 07:13:29;;;;;;;2.03;0.98;;;10.00;99.90;;;;;;4988115;28;20142;-81
2021/10/08 07:15:57;;;;;;;1.08;0.55;;;10.10;99.90;;;;;;4987723;28;20031;-81
2021/10/08 07:18:25;;;;;;;1.17;0.50;;;10.10;99.90;;;;;;4986234;28;20026;-80
2021/10/08 07:20:51;;;;;;;1.17;0.50;;;10.20;99.90;;;;;;4985241;28;20058;-80
2021/10/08 07:23:17;;;;;;;1.27;0.55;;;10.20;99.90;;;;;;4987591;28;20041;-81
2021/10/08 07:25:44;;;;;;;1.50;0.77;;;10.30;99.90;;;;;;4984287;28;20035;-80
2021/10/08 07:28:10;;;;;;;2.17;1.42;;;10.40;99.90;;;;;;4996984;28;20046;-80
2021/10/08 07:30:36;;;;;;;1.50;0.65;;;10.40;99.90;;;;;;4994597;28;20019;-80
2021/10/08 07:33:02;;;;;;;1.65;0.90;;;10.40;99.90;;;;;;4983190;28;20025;-80
2021/10/08 07:35:28;;;;;;;1.20;0.68;;;10.60;99.90;;;;;;4996837;28;20035;-80
2021/10/08 07:37:53;;;;;;;1.60;0.85;;;10.70;99.90;;;;;;4984499;28;20046;-80
2021/10/08 07:40:19;;;;;;;1.50;0.70;;;10.80;99.90;;;;;;4996621;28;20045;-80
2021/10/08 07:42:45;;;;;;;1.33;0.57;;;10.80;99.90;;;;;;5009539;28;20022;-84
2021/10/08 07:45:12;;;;;;;1.58;0.85;;;10.90;99.90;;;;;;5010613;28;20050;-85
2021/10/08 07:47:38;;;;;;;3.35;0.90;;;10.90;99.90;;;;;;4992736;28;20071;-85
2021/10/08 07:50:06;;;;;;;1.40;0.68;;;11.00;99.90;;;;;;4991902;28;20039;-84
2021/10/08 07:52:32;;;;;;;2.00;0.95;;;11.10;99.90;;;;;;5002787;28;20011;-84
2021/10/08 07:54:57;;;;;;;1.65;0.80;;;11.20;99.90;;;;;;4997442;28;20034;-85
2021/10/08 07:57:23;;;;;;;1.77;0.80;;;11.20;99.90;;;;;;4972330;28;20059;-85
2021/10/08 07:59:49;;;;;;;1.27;0.60;;;11.20;99.90;;;;;;4991356;28;20038;-85
2021/10/08 08:02:14;;;;;;;2.03;0.90;;;11.30;99.90;;;;;;5022845;28;20035;-85
2021/10/08 08:04:40;;;;;;;1.08;0.52;;;11.40;99.90;;;;;;4986664;28;20148;-84
2021/10/08 08:07:06;;;;;;;2.45;1.05;;;11.40;99.90;;;;;;4983543;28;20027;-85
2021/10/08 08:09:32;;;;;;;2.63;1.25;;;11.50;99.90;;;;;;4988393;28;20391;-85
2021/10/08 08:11:58;;;;;;;1.10;0.68;;;11.60;99.90;;;;;;5000999;28;20034;-85
2021/10/08 08:14:23;;;;;;;1.13;0.50;;;11.60;99.90;;;;;;4990196;28;20023;-85
2021/10/08 08:16:49;;;;;;;1.30;0.77;;;11.70;99.90;;;;;;4969726;28;20039;-85
2021/10/08 08:19:15;;;;;;;1.55;0.65;;;11.70;99.90;;;;;;4989294;28;20038;-84
2021/10/08 08:21:42;;;;;;;1.67;1.02;;;11.80;99.90;;;;;;4987813;28;20035;-84
2021/10/08 08:24:08;;;;;;;1.42;0.57;;;11.80;99.90;;;;;;4993191;28;20034;-85
2021/10/08 08:26:35;;;;;;;1.67;0.73;;;11.90;99.90;;;;;;4994832;28;20034;-85
2021/10/08 08:29:01;;;;;;;2.20;0.90;;;11.90;99.90;;;;;;4995447;28;20057;-85
2021/10/08 08:31:27;;;;;;;2.40;1.27;;;12.20;99.90;;;;;;4995367;28;20033;-85
2021/10/08 08:33:52;;;;;;;1.77;0.70;;;12.10;99.90;;;;;;4995361;28;20027;-86
2021/10/08 08:36:18;;;;;;;1.02;0.60;;;12.30;99.90;;;;;;4988228;28;20030;-86
2021/10/08 08:38:44;;;;;;;1.48;0.77;;;12.30;99.90;;;;;;4973906;28;20058;-85
2021/10/08 08:41:09;;;;;;;1.60;0.90;;;12.30;99.90;;;;;;4975807;28;20519;-85
2021/10/08 08:43:35;;;;;;;1.75;0.80;;;12.50;99.90;;;;;;5001647;28;20412;-85
2021/10/08 08:46:01;;;;;;;2.97;0.70;;;12.60;99.90;;;;;;5000228;28;20031;-85
2021/10/08 08:48:27;;;;;;;1.52;0.70;;;12.70;99.90;;;;;;4995315;28;20030;-86
2021/10/08 08:50:53;;;;;;;2.10;0.95;;;12.70;99.90;;;;;;4993455;28;20053;-85
2021/10/08 08:53:23;;;;;;;2.45;1.35;;;12.70;99.90;;;;;;4994304;28;20030;-84
2021/10/08 08:55:49;;;;;;;1.23;0.60;;;12.70;99.90;;;;;;4994129;28;20058;-85
2021/10/08 08:58:16;;;;;;;2.88;1.42;;;12.80;99.90;;;;;;5002812;28;20085;-85
2021/10/08 09:00:45;;;;;;;1.48;0.75;;;12.80;99.90;;;;;;5014035;28;20026;-85
2021/10/08 09:03:14;;;;;;;1.15;0.80;;;12.90;99.90;;;;;;5014132;28;20015;-85
2021/10/08 09:05:46;;;;;;;2.08;0.93;;;13.00;99.90;;;;;;4975992;28;20034;-85
2021/10/08 09:08:13;;;;;;;2.08;0.95;;;12.90;99.90;;;;;;4981302;28;20022;-86
2021/10/08 09:10:46;;;;;;;2.83;0.98;;;13.00;99.90;;;;;;4980228;28;20022;-85
2021/10/08 09:13:14;;;;;;;1.80;0.50;;;13.00;99.90;;;;;;4989528;28;20030;-85
2021/10/08 09:15:55;;;;;;;1.15;0.57;;;12.90;99.90;;;;;;4992223;28;20037;-86
2021/10/08 09:18:23;;;;;;;1.20;0.63;;;12.90;99.90;;;;;;4984151;28;20400;-85
2021/10/08 09:21:08;;;;;;;1.98;1.13;;;12.90;99.90;;;;;;4954413;28;20499;-86
2021/10/08 09:23:41;;;;;;;0.85;0.57;;;13.00;99.90;;;;;;4954485;28;20039;-85
2021/10/08 09:26:16;;;;;;;2.33;0.60;;;12.90;99.90;;;;;;4956316;28;20026;-86
2021/10/08 09:28:51;;;;;;;2.17;0.90;;;12.80;99.90;;;;;;4953468;28;20054;-85
2021/10/08 09:31:18;;;;;;;1.85;0.90;;;12.90;99.90;;;;;;4954433;28;20030;-86
2021/10/08 09:33:43;;;;;;;1.27;0.88;;;12.90;99.90;;;;;;4952817;28;20489;-85
2021/10/08 09:36:13;;;;;;;1.65;0.63;;;12.90;99.90;;;;;;4962316;28;20038;-85
2021/10/08 09:38:45;;;;;;;1.50;0.68;;;13.00;99.90;;;;;;4974504;28;20398;-85
2021/10/08 09:41:10;;;;;;;1.02;0.50;;;13.00;99.90;;;;;;4973441;28;20169;-85
2021/10/08 09:43:36;;;;;;;2.70;1.30;;;13.10;99.90;;;;;;4972945;28;20114;-85
2021/10/08 09:46:04;;;;;;;1.42;0.85;;;13.10;99.90;;;;;;4973027;28;20510;-85
2021/10/08 09:48:43;;;;;;;2.15;1.00;;;13.00;99.90;;;;;;4971157;28;20035;-85
2021/10/08 09:51:17;;;;;;;0.93;0.47;;;13.10;99.90;;;;;;4970872;28;20121;-85
2021/10/08 09:53:48;;;;;;;1.58;0.60;;;13.10;99.90;;;;;;4973165;28;20027;-85
2021/10/08 09:56:39;;;;;;;1.58;0.80;;;13.10;99.90;;;;;;4964267;28;20031;-86
2021/10/08 09:59:07;;;;;;;1.55;0.80;;;13.00;99.90;;;;;;4960745;28;20451;-85
2021/10/08 10:01:35;;;;;;;1.60;0.70;;;13.10;99.90;;;;;;4972919;28;20052;-85
2021/10/08 10:04:02;;;;;;;1.48;0.80;;;13.10;99.90;;;;;;4970077;28;20109;-85
2021/10/08 10:06:28;;;;;;;2.20;1.00;;;13.10;99.90;;;;;;4972222;28;20030;-85
2021/10/08 10:08:54;;;;;;;1.95;1.20;;;13.10;99.90;;;;;;4973154;28;20038;-85
2021/10/08 10:11:24;;;;;;;2.00;0.80;;;13.20;99.90;;;;;;4968682;28;20015;-86
2021/10/08 10:13:52;;;;;;;3.35;1.55;;;13.20;99.90;;;;;;4971898;28;20065;-86
2021/10/08 10:16:19;;;;;;;2.00;0.80;;;13.10;99.90;;;;;;4972253;28;20340;-86
2021/10/08 10:18:52;;;;;;;2.25;0.98;;;13.20;99.90;;;;;;4973551;28;20069;-85
2021/10/08 10:21:26;;;;;;;1.88;1.30;;;13.30;99.90;;;;;;4955593;28;20502;-85
2021/10/08 10:23:56;;;;;;;2.97;0.88;;;13.40;99.90;;;;;;4952491;28;20121;-85
2021/10/08 10:26:24;;;;;;;2.03;0.60;;;13.50;99.90;;;;;;4966474;28;20058;-85
2021/10/08 10:28:51;;;;;;;2.58;0.90;;;13.50;99.90;;;;;;4979274;28;20027;-85
2021/10/08 10:31:18;;;;;;;2.08;0.85;;;13.50;99.90;;;;;;4978476;28;20518;-85
2021/10/08 10:33:45;;;;;;;2.05;0.82;;;13.60;99.90;;;;;;4973685;28;20356;-85
2021/10/08 10:36:25;;;;;;;1.92;0.85;;;13.60;99.90;;;;;;4972758;28;20162;-86
2021/10/08 10:38:51;;;;;;;2.05;0.90;;;13.60;99.90;;;;;;4975610;28;20038;-85
2021/10/08 10:41:16;;;;;;;2.15;0.68;;;13.70;99.90;;;;;;4977667;28;20449;-85
2021/10/08 10:43:48;;;;;;;1.60;1.10;;;13.80;99.90;;;;;;4976731;28;20029;-85
2021/10/08 10:46:34;;;;;;;2.83;1.13;;;13.90;99.90;;;;;;4976404;28;20368;-85
2021/10/08 10:51:55;;;;;;;1.52;1.13;;;14.10;99.90;;;;;;4977814;28;20030;-86
2021/10/08 10:54:41;;;;;;;2.63;1.02;;;14.20;99.90;;;;;;4990141;28;20026;-85
2021/10/08 10:57:08;;;;;;;1.13;0.80;;;14.30;99.90;;;;;;4972793;28;20035;-85
2021/10/08 10:59:34;;;;;;;1.60;0.70;;;14.20;99.90;;;;;;4951484;28;20046;-86
2021/10/08 11:02:04;;;;;;;1.25;0.45;;;14.30;99.90;;;;;;4953027;28;20045;-85
2021/10/08 11:04:30;;;;;;;1.98;0.65;;;14.30;99.90;;;;;;4984175;28;20023;-85
2021/10/08 11:07:13;;;;;;;1.27;0.60;;;14.40;99.90;;;;;;4966781;28;20022;-85
2021/10/08 11:09:44;;;;;;;2.63;1.33;;;14.60;99.90;;;;;;4970675;28;20035;-86
2021/10/08 11:12:28;;;;;;;2.13;0.90;;;14.70;99.90;;;;;;4972271;28;20031;-86
2021/10/08 11:15:16;;;;;;;2.50;1.15;;;14.60;99.90;;;;;;4954698;28;20023;-85
2021/10/08 11:17:55;;;;;;;1.60;0.90;;;14.50;99.90;;;;;;4951784;28;20031;-85
2021/10/08 11:20:30;;;;;;;1.52;0.70;;;14.50;99.90;;;;;;4956892;28;20030;-85
2021/10/08 11:22:58;;;;;;;1.85;0.95;;;14.40;99.90;;;;;;4953349;28;20073;-85
2021/10/08 11:25:24;;;;;;;1.65;0.73;;;14.40;99.90;;;;;;4951492;28;20051;-85
2021/10/08 11:27:50;;;;;;;2.10;0.75;;;14.40;99.90;;;;;;4969552;28;20416;-85
2021/10/08 11:30:17;;;;;;;2.22;1.15;;;14.40;99.90;;;;;;4967029;28;20019;-83
2021/10/08 11:32:49;;;;;;;2.28;1.10;;;14.40;99.90;;;;;;4971894;28;20098;-83
2021/10/08 11:35:19;;;;;;;1.27;0.52;;;14.40;99.90;;;;;;4983339;28;20462;-83
2021/10/08 11:37:47;;;;;;;1.58;0.93;;;14.50;99.90;;;;;;4992583;28;20030;-83
2021/10/08 11:40:34;;;;;;;2.67;0.90;;;14.50;99.90;;;;;;4983193;28;20038;-83
2021/10/08 11:43:04;;;;;;;1.27;0.68;;;14.40;99.90;;;;;;4975508;28;20035;-83
2021/10/08 11:45:53;;;;;;;1.83;0.82;;;14.20;99.90;;;;;;4974056;28;20030;-83
2021/10/08 11:48:25;;;;;;;1.58;0.60;;;14.10;99.90;;;;;;4981296;28;20109;-83
2021/10/08 11:51:03;;;;;;;0.75;0.52;;;14.00;99.90;;;;;;4975761;28;20291;-83
2021/10/08 11:53:46;;;;;;;1.80;0.85;;;13.90;99.90;;;;;;4961369;28;20027;-83
2021/10/08 11:56:13;;;;;;;1.52;0.73;;;13.90;99.90;;;;;;4982428;28;20031;-83
2021/10/08 11:58:39;;;;;;;0.85;0.43;;;14.00;99.90;;;;;;4983909;28;20035;-83
2021/10/08 12:01:04;;;;;;;1.92;0.77;;;13.90;99.90;;;;;;4973726;28;20487;-82
2021/10/08 12:03:41;;;;;;;1.90;0.85;;;13.90;99.90;;;;;;4983113;28;20018;-83
2021/10/08 12:06:06;;;;;;;1.52;0.60;;;13.90;99.90;;;;;;4976202;28;20110;-83
2021/10/08 12:08:37;;;;;;;2.17;0.93;;;13.90;99.90;;;;;;4983237;28;20109;-83
2021/10/08 12:11:18;;;;;;;1.40;0.68;;;13.90;99.90;;;;;;4979190;28;20113;-83
2021/10/08 12:13:48;;;;;;;2.40;0.90;;;13.90;99.90;;;;;;4988297;28;20113;-83
2021/10/08 12:16:26;;;;;;;1.57;0.70;;;14.10;99.90;;;;;;4979421;28;20113;-83
2021/10/08 12:18:55;;;;;;;1.20;0.43;;;14.10;99.90;;;;;;4974014;28;20180;-82
2021/10/08 12:21:24;;;;;;;1.33;0.88;;;14.20;99.90;;;;;;4974797;28;20030;-83
2021/10/08 12:24:00;;;;;;;1.23;0.55;;;14.20;99.90;;;;;;5035676;23;20068;-80
2021/10/08 12:26:27;;;;;;;1.50;0.85;;;14.30;99.90;;;;;;5046619;28;20037;-82
2021/10/08 12:28:54;;;;;;;1.95;0.90;;;14.30;99.90;;;;;;5018411;28;20037;-82
2021/10/08 12:31:21;;;;;;;2.10;0.85;;;14.70;99.90;;;;;;5014065;28;20097;-80
2021/10/08 12:33:48;;;;;;;2.28;0.82;;;14.40;99.90;;;;;;5035107;28;20033;-82
2021/10/08 12:36:17;;;;;;;2.92;1.65;;;14.50;99.90;;;;;;5031964;28;20293;-79
2021/10/08 12:39:06;;;;;;;2.80;1.38;;;14.50;99.90;;;;;;5036232;28;20103;-82
2021/10/08 12:41:49;;;;;;;1.55;0.70;;;14.50;99.90;;;;;;5045456;28;20537;-81
2021/10/08 12:44:29;;;;;;;1.63;0.65;;;14.50;99.90;;;;;;5055313;28;20060;-82
2021/10/08 12:47:18;;;;;;;1.35;0.60;;;14.50;99.90;;;;;;5017136;28;20030;-82
2021/10/08 12:49:48;;;;;;;1.88;0.85;;;14.70;99.90;;;;;;5017411;28;20145;-82
2021/10/08 12:52:16;;;;;;;1.52;0.80;;;14.70;99.90;;;;;;5018685;28;20966;-82
2021/10/08 12:54:44;;;;;;;0.88;0.40;;;14.80;99.90;;;;;;5034260;28;20034;-83
2021/10/08 12:57:14;;;;;;;1.67;0.80;;;14.70;99.90;;;;;;5024453;28;20038;-82
2021/10/08 12:59:49;;;;;;;1.95;0.98;;;14.60;99.90;;;;;;5037735;28;20016;-82
2021/10/08 13:02:16;;;;;;;1.85;0.77;;;14.50;99.90;;;;;;5036387;28;20025;-80